Time;durP1;ratioP1;P1;durP2;ratioP2;P2;SDS_P1;SDS_P2;PMS_P1;PMS_P2;Temp;Humidity;BMP_temperature;BMP_pressure;BME280_temperature;BME280_humidity;BME280_pressure;Samples;Min_cycle;Max_cycle;Signal;HPM_P1;HPM_P2
2023/05/05 00:01:31;;;;;;;23.17;10.35;;;12.40;99.90;;;;;;5052989;28;20047;-66
2023/05/05 00:03:57;;;;;;;18.52;10.85;;;12.40;99.90;;;;;;5049758;28;20083;-66
2023/05/05 00:06:23;;;;;;;16.13;10.18;;;12.40;99.90;;;;;;5045068;28;20445;-66
2023/05/05 00:08:48;;;;;;;17.00;10.15;;;12.40;99.90;;;;;;5049344;28;20068;-67
2023/05/05 00:11:14;;;;;;;16.10;10.00;;;12.40;99.90;;;;;;5047090;28;20082;-68
2023/05/05 00:13:39;;;;;;;17.95;10.35;;;12.40;99.90;;;;;;5044990;28;20691;-66
2023/05/05 00:16:05;;;;;;;16.63;10.05;;;12.40;99.90;;;;;;5045256;28;20525;-69
2023/05/05 00:18:32;;;;;;;22.60;10.15;;;12.40;99.90;;;;;;5062345;28;20037;-68
2023/05/05 00:20:58;;;;;;;19.45;10.65;;;12.40;99.90;;;;;;5048334;28;20060;-67
2023/05/05 00:23:24;;;;;;;20.30;10.90;;;12.30;99.90;;;;;;5047728;28;20114;-66
2023/05/05 00:25:49;;;;;;;20.13;10.88;;;12.30;99.90;;;;;;5051015;28;20582;-66
2023/05/05 00:28:31;;;;;;;16.52;9.98;;;12.40;99.90;;;;;;5032475;28;20545;-70
2023/05/05 00:30:57;;;;;;;17.60;10.15;;;12.30;99.90;;;;;;5050673;28;20041;-67
2023/05/05 00:33:22;;;;;;;17.40;10.35;;;12.30;99.90;;;;;;5067916;28;20083;-68
2023/05/05 00:35:48;;;;;;;16.38;11.07;;;12.30;99.90;;;;;;5052749;28;20167;-68
2023/05/05 00:38:13;;;;;;;22.77;11.23;;;12.40;99.90;;;;;;5053943;28;20037;-68
2023/05/05 00:40:39;;;;;;;20.65;11.13;;;12.30;99.90;;;;;;5051745;28;20503;-66
2023/05/05 00:43:05;;;;;;;18.92;10.95;;;12.30;99.90;;;;;;5052654;28;20089;-66
2023/05/05 00:45:30;;;;;;;23.05;11.20;;;12.30;99.90;;;;;;5051632;28;20033;-66
2023/05/05 00:48:04;;;;;;;21.40;11.40;;;12.30;99.90;;;;;;5053339;28;20037;-65
2023/05/05 00:50:30;;;;;;;19.75;11.25;;;12.30;99.90;;;;;;5053452;28;20048;-66
2023/05/05 00:53:05;;;;;;;18.55;10.98;;;12.30;99.90;;;;;;5052993;28;20080;-66
2023/05/05 00:55:32;;;;;;;21.02;11.82;;;12.30;99.90;;;;;;5050705;28;20125;-65
2023/05/05 00:57:59;;;;;;;19.63;11.75;;;12.30;99.90;;;;;;5053485;28;20037;-67
2023/05/05 01:00:25;;;;;;;18.02;11.20;;;12.20;99.90;;;;;;5053212;28;20381;-66
2023/05/05 01:02:51;;;;;;;21.58;11.52;;;12.20;99.90;;;;;;5051473;28;20086;-68
2023/05/05 01:05:18;;;;;;;17.27;11.70;;;12.20;99.90;;;;;;5052460;28;20041;-67
2023/05/05 01:08:18;;;;;;;21.10;11.15;;;12.10;99.90;;;;;;5055453;28;20048;-66
2023/05/05 01:11:13;;;;;;;19.70;11.48;;;12.10;99.90;;;;;;5051885;28;20049;-67
2023/05/05 01:13:51;;;;;;;20.88;11.30;;;12.10;99.90;;;;;;5049820;28;20063;-67
2023/05/05 01:16:18;;;;;;;23.67;12.40;;;12.10;99.90;;;;;;5051824;28;20045;-66
2023/05/05 01:19:22;;;;;;;22.45;12.52;;;12.00;99.90;;;;;;5051964;28;20033;-67
2023/05/05 01:21:54;;;;;;;19.55;12.05;;;12.10;99.90;;;;;;5044863;28;20053;-68
2023/05/05 01:24:44;;;;;;;20.37;11.93;;;12.00;99.90;;;;;;5053875;28;20052;-68
2023/05/05 01:31:10;;;;;;;22.48;12.75;;;12.00;99.90;;;;;;5048587;28;20048;-68
2023/05/05 01:33:46;;;;;;;21.50;12.10;;;12.00;99.90;;;;;;5041041;28;20080;-68
2023/05/05 01:36:21;;;;;;;21.17;12.48;;;12.00;99.90;;;;;;5053640;28;20508;-67
2023/05/05 01:42:29;;;;;;;21.77;12.95;;;11.90;99.90;;;;;;5053546;28;20067;-67
2023/05/05 01:44:55;;;;;;;20.90;13.32;;;11.80;99.90;;;;;;5053649;28;20036;-67
2023/05/05 01:47:22;;;;;;;22.40;12.68;;;11.80;99.90;;;;;;5050075;28;20037;-67
2023/05/05 01:53:29;;;;;;;23.25;12.60;;;11.80;99.90;;;;;;5035576;28;20071;-67
2023/05/05 01:55:56;;;;;;;20.67;12.45;;;11.70;99.90;;;;;;5054221;28;20041;-66
2023/05/05 02:02:03;;;;;;;21.58;12.82;;;11.60;99.90;;;;;;5052646;28;20052;-67
2023/05/05 02:04:31;;;;;;;22.73;12.50;;;11.60;99.90;;;;;;5053255;28;20029;-67
2023/05/05 02:06:58;;;;;;;20.08;12.35;;;11.60;99.90;;;;;;5052857;28;20041;-67
2023/05/05 02:09:25;;;;;;;28.52;14.95;;;11.60;99.90;;;;;;5035587;28;20395;-67
2023/05/05 02:11:51;;;;;;;23.60;12.18;;;11.60;99.90;;;;;;5052611;28;20044;-67
2023/05/05 02:14:19;;;;;;;20.05;12.50;;;11.60;99.90;;;;;;5046796;28;20056;-67
2023/05/05 02:20:26;;;;;;;27.00;13.43;;;11.50;99.90;;;;;;5054324;28;20060;-68
2023/05/05 02:22:52;;;;;;;20.60;12.77;;;11.50;99.90;;;;;;5055977;28;20044;-68
2023/05/05 02:29:06;;;;;;;22.13;13.40;;;11.40;99.90;;;;;;5052127;28;20036;-67
2023/05/05 02:31:37;;;;;;;20.02;12.90;;;11.40;99.90;;;;;;5054571;28;20041;-68
2023/05/05 02:37:47;;;;;;;20.67;13.05;;;11.30;99.90;;;;;;5043001;28;20455;-68
2023/05/05 02:43:56;;;;;;;26.55;13.73;;;11.00;99.90;;;;;;5054216;28;20412;-67
2023/05/05 02:46:22;;;;;;;26.20;13.63;;;10.70;99.90;;;;;;5053225;28;20033;-67
2023/05/05 02:48:47;;;;;;;22.77;13.82;;;10.60;99.90;;;;;;5052783;28;20040;-68
2023/05/05 02:59:25;;;;;;;21.50;13.60;;;10.70;99.90;;;;;;5053945;28;20031;-68
2023/05/05 03:01:59;;;;;;;24.05;13.80;;;10.80;99.90;;;;;;5035866;28;20045;-68
2023/05/05 03:08:14;;;;;;;27.05;14.90;;;10.90;99.90;;;;;;5053881;28;20044;-68
2023/05/05 03:10:57;;;;;;;22.73;14.20;;;10.90;99.90;;;;;;5054459;28;20116;-68
2023/05/05 03:13:25;;;;;;;27.02;15.30;;;10.90;99.90;;;;;;5048658;28;20048;-66
2023/05/05 03:15:52;;;;;;;29.50;16.70;;;11.00;99.90;;;;;;5052419;28;20049;-68
2023/05/05 03:18:19;;;;;;;26.13;15.48;;;11.00;99.90;;;;;;5052874;28;20036;-68
2023/05/05 03:24:25;;;;;;;27.42;16.42;;;11.10;99.90;;;;;;5033734;28;20047;-68
2023/05/05 03:26:52;;;;;;;23.38;14.68;;;11.10;99.90;;;;;;5047645;28;20131;-69
2023/05/05 03:29:17;;;;;;;26.25;15.32;;;11.10;99.90;;;;;;5047666;28;20504;-69
2023/05/05 03:31:43;;;;;;;26.13;15.07;;;11.10;99.90;;;;;;5049595;28;20036;-69
2023/05/05 03:34:09;;;;;;;25.98;15.02;;;11.20;99.90;;;;;;5051023;28;20040;-69
2023/05/05 03:36:35;;;;;;;25.00;15.30;;;11.20;99.90;;;;;;5050623;28;20171;-69
2023/05/05 03:39:02;;;;;;;26.70;16.13;;;11.20;99.90;;;;;;5050628;28;20380;-70
2023/05/05 03:41:28;;;;;;;30.00;15.88;;;11.20;99.90;;;;;;5050036;28;20040;-71
2023/05/05 03:47:56;;;;;;;23.23;15.82;;;11.30;99.90;;;;;;5047942;28;20040;-70
2023/05/05 03:50:23;;;;;;;29.35;16.20;;;11.20;99.90;;;;;;5047380;28;20544;-70
2023/05/05 03:52:48;;;;;;;31.40;17.45;;;11.30;99.90;;;;;;5039591;28;20243;-73
2023/05/05 03:55:14;;;;;;;42.85;19.83;;;11.20;99.90;;;;;;5041370;28;20527;-75
2023/05/05 03:57:40;;;;;;;32.22;17.17;;;11.20;99.90;;;;;;5060923;28;20041;-71
2023/05/05 04:00:09;;;;;;;36.08;18.30;;;11.10;99.90;;;;;;5046813;28;20044;-71
2023/05/05 04:02:35;;;;;;;36.50;18.20;;;11.10;99.90;;;;;;5041472;28;20053;-72
2023/05/05 04:05:00;;;;;;;31.83;17.67;;;11.10;99.90;;;;;;5042607;28;20060;-72
2023/05/05 04:07:26;;;;;;;33.10;18.15;;;11.00;99.90;;;;;;5040933;28;20508;-72
2023/05/05 04:09:51;;;;;;;41.92;21.02;;;11.00;99.90;;;;;;5057025;28;20068;-72
2023/05/05 04:12:17;;;;;;;37.53;20.50;;;10.90;99.90;;;;;;5041624;28;20033;-72
2023/05/05 04:14:42;;;;;;;44.42;21.98;;;10.90;99.90;;;;;;5026866;28;20040;-72
2023/05/05 04:17:08;;;;;;;44.67;22.17;;;10.90;99.90;;;;;;5042848;28;20045;-72
2023/05/05 04:19:33;;;;;;;39.35;21.05;;;10.80;99.90;;;;;;5038732;28;20049;-71
2023/05/05 04:21:59;;;;;;;32.17;20.02;;;10.80;99.90;;;;;;5041893;28;20130;-71
2023/05/05 04:24:25;;;;;;;37.13;20.70;;;10.80;99.90;;;;;;5043587;28;20029;-71
2023/05/05 04:26:51;;;;;;;43.00;22.50;;;10.80;99.90;;;;;;5043908;28;20033;-71
2023/05/05 04:29:17;;;;;;;36.15;19.92;;;10.70;99.90;;;;;;5039604;28;20366;-68
2023/05/05 04:31:43;;;;;;;34.47;20.02;;;10.70;99.90;;;;;;5042730;28;20309;-69
2023/05/05 04:34:09;;;;;;;35.30;19.73;;;10.70;99.90;;;;;;5041668;28;20392;-70
2023/05/05 04:36:34;;;;;;;31.30;18.77;;;10.70;99.90;;;;;;5043075;28;20075;-70
2023/05/05 04:39:00;;;;;;;30.15;18.27;;;10.70;99.90;;;;;;5041061;28;20434;-70
2023/05/05 04:41:26;;;;;;;33.15;18.33;;;10.60;99.90;;;;;;5039852;28;20470;-69
2023/05/05 04:43:54;;;;;;;34.78;18.92;;;10.70;99.90;;;;;;5044647;28;20091;-69
2023/05/05 04:46:20;;;;;;;32.25;18.63;;;10.70;99.90;;;;;;5061137;28;20120;-69
2023/05/05 04:48:46;;;;;;;37.45;20.63;;;10.70;99.90;;;;;;5045105;28;20120;-69
2023/05/05 04:51:12;;;;;;;29.55;18.77;;;10.80;99.90;;;;;;5041025;28;20037;-69
2023/05/05 04:53:38;;;;;;;31.33;18.35;;;10.80;99.90;;;;;;5045967;28;20078;-69
2023/05/05 04:56:04;;;;;;;32.30;18.20;;;10.70;99.90;;;;;;5056460;28;20040;-69
2023/05/05 04:58:30;;;;;;;29.02;17.02;;;10.70;99.90;;;;;;5038522;28;20064;-69
2023/05/05 05:00:55;;;;;;;34.53;19.85;;;10.70;99.90;;;;;;5042266;28;20044;-69
2023/05/05 05:03:21;;;;;;;45.95;22.10;;;10.70;99.90;;;;;;5041389;28;20044;-68
2023/05/05 05:05:46;;;;;;;35.33;20.50;;;10.70;99.90;;;;;;5039407;28;20095;-68
2023/05/05 05:08:15;;;;;;;30.58;18.20;;;10.50;99.90;;;;;;5040294;28;20037;-68
2023/05/05 05:10:41;;;;;;;38.53;20.08;;;10.50;99.90;;;;;;5041112;28;20041;-68
2023/05/05 05:13:06;;;;;;;31.13;18.58;;;10.50;99.90;;;;;;5039820;28;20037;-67
2023/05/05 05:15:32;;;;;;;39.55;20.60;;;10.50;99.90;;;;;;5040146;28;20440;-67
2023/05/05 05:17:57;;;;;;;32.38;18.80;;;10.60;99.90;;;;;;5039887;28;20670;-67
2023/05/05 05:20:23;;;;;;;38.80;21.10;;;10.60;99.90;;;;;;5042763;28;20175;-67
2023/05/05 05:22:48;;;;;;;40.78;22.70;;;10.70;99.90;;;;;;5040315;28;20043;-66
2023/05/05 05:25:14;;;;;;;43.78;23.40;;;10.80;99.90;;;;;;5040512;28;20067;-65
2023/05/05 05:27:40;;;;;;;39.67;23.35;;;11.00;99.90;;;;;;5041720;28;20029;-66
2023/05/05 05:30:07;;;;;;;35.78;20.65;;;11.10;99.90;;;;;;5037280;28;20115;-66
2023/05/05 05:32:32;;;;;;;34.30;20.58;;;11.20;99.90;;;;;;5046264;28;20107;-66
2023/05/05 05:34:58;;;;;;;44.30;24.02;;;11.40;99.90;;;;;;5046652;28;20041;-66
2023/05/05 05:37:27;;;;;;;34.78;21.80;;;11.50;99.90;;;;;;5043977;28;20033;-65
2023/05/05 05:39:53;;;;;;;37.28;22.58;;;11.60;99.90;;;;;;5047830;28;20059;-66
2023/05/05 05:42:18;;;;;;;33.67;20.73;;;11.60;99.90;;;;;;5045479;28;20037;-66
2023/05/05 05:44:44;;;;;;;37.50;21.27;;;11.70;99.90;;;;;;5060174;28;20771;-66
2023/05/05 05:47:09;;;;;;;36.97;21.38;;;11.80;99.90;;;;;;5046922;28;20116;-66
2023/05/05 05:49:35;;;;;;;38.22;23.05;;;11.90;99.90;;;;;;5042576;28;20033;-66
2023/05/05 05:52:01;;;;;;;40.50;22.38;;;11.90;99.90;;;;;;5042558;28;20044;-66
2023/05/05 05:54:26;;;;;;;33.63;20.58;;;12.00;99.90;;;;;;5048378;28;20052;-66
2023/05/05 05:56:52;;;;;;;36.17;20.98;;;12.00;99.90;;;;;;5050505;28;20043;-66
2023/05/05 05:59:17;;;;;;;33.33;20.83;;;12.10;99.90;;;;;;5040080;28;20045;-66
2023/05/05 06:01:43;;;;;;;35.50;20.55;;;12.10;99.90;;;;;;5057422;28;20041;-67
2023/05/05 06:04:09;;;;;;;39.28;20.80;;;12.20;99.90;;;;;;5040861;28;20040;-67
2023/05/05 06:06:34;;;;;;;31.30;20.02;;;12.30;99.90;;;;;;5042319;28;20049;-66
2023/05/05 06:09:00;;;;;;;35.83;18.52;;;12.40;99.90;;;;;;5039990;28;20044;-66
2023/05/05 06:11:25;;;;;;;33.95;20.25;;;12.50;99.90;;;;;;5041373;28;20037;-66
2023/05/05 06:13:51;;;;;;;32.20;19.83;;;12.60;99.90;;;;;;5052953;28;20102;-67
2023/05/05 06:16:16;;;;;;;38.83;21.45;;;12.60;99.90;;;;;;5039897;28;20098;-67
2023/05/05 06:18:42;;;;;;;34.45;19.73;;;12.70;99.90;;;;;;5037019;28;20048;-67
2023/05/05 06:21:07;;;;;;;34.30;19.35;;;12.80;99.90;;;;;;5039412;28;20041;-66
2023/05/05 06:23:33;;;;;;;33.63;19.98;;;12.80;99.90;;;;;;5057175;28;20037;-67
2023/05/05 06:25:58;;;;;;;34.95;21.05;;;12.90;99.90;;;;;;5040169;28;20071;-67
2023/05/05 06:28:24;;;;;;;32.35;19.95;;;13.00;99.90;;;;;;5038453;28;20831;-67
2023/05/05 06:30:50;;;;;;;32.60;20.48;;;13.10;99.90;;;;;;5041438;28;20548;-67
2023/05/05 06:33:16;;;;;;;37.08;21.08;;;13.20;99.90;;;;;;5040662;28;20114;-65
2023/05/05 06:35:41;;;;;;;32.53;20.27;;;13.30;99.90;;;;;;5043214;28;20049;-68
2023/05/05 06:38:07;;;;;;;34.15;20.95;;;13.40;99.90;;;;;;5041448;28;20052;-68
2023/05/05 06:40:32;;;;;;;31.95;19.65;;;13.40;99.90;;;;;;5047928;28;20044;-68
2023/05/05 06:42:58;;;;;;;34.85;21.50;;;13.50;99.90;;;;;;5041753;28;20036;-68
2023/05/05 06:45:24;;;;;;;34.75;21.50;;;13.60;99.90;;;;;;5044296;28;20044;-68
2023/05/05 06:47:49;;;;;;;34.75;21.50;;;13.60;99.90;;;;;;5042392;28;20041;-68
2023/05/05 06:50:15;;;;;;;30.90;21.20;;;13.70;99.90;;;;;;5042538;28;20041;-68
2023/05/05 06:52:40;;;;;;;31.98;21.40;;;13.80;99.90;;;;;;5043197;28;20052;-68
2023/05/05 06:55:06;;;;;;;32.83;19.92;;;13.90;99.90;;;;;;5045308;28;20048;-68
2023/05/05 06:57:32;;;;;;;32.67;20.35;;;14.00;99.90;;;;;;5042670;28;20072;-68
2023/05/05 06:59:57;;;;;;;32.50;20.50;;;14.10;99.90;;;;;;5041803;28;20052;-68
2023/05/05 07:02:23;;;;;;;33.53;20.30;;;14.20;99.90;;;;;;5041254;28;20041;-68
2023/05/05 07:04:49;;;;;;;31.90;19.85;;;14.30;99.90;;;;;;5057697;28;20070;-69
2023/05/05 07:07:15;;;;;;;30.77;21.08;;;14.50;99.90;;;;;;5056808;28;20041;-68
2023/05/05 07:09:41;;;;;;;34.90;22.05;;;14.60;99.90;;;;;;5046377;28;20051;-68
2023/05/05 07:12:07;;;;;;;31.05;19.67;;;14.70;99.90;;;;;;5040848;28;20377;-69
2023/05/05 07:14:32;;;;;;;31.10;20.17;;;14.80;99.90;;;;;;5043795;28;20523;-69
2023/05/05 07:16:58;;;;;;;31.40;20.00;;;14.90;99.90;;;;;;5044125;28;20059;-69
2023/05/05 07:19:23;;;;;;;36.35;21.23;;;15.00;99.90;;;;;;5042843;28;20039;-68
2023/05/05 07:21:49;;;;;;;30.70;19.85;;;15.10;99.90;;;;;;5045346;28;20502;-68
2023/05/05 07:24:14;;;;;;;33.05;21.25;;;15.20;99.90;;;;;;5047137;28;20049;-69
2023/05/05 07:26:40;;;;;;;36.25;21.77;;;15.40;99.90;;;;;;5048349;28;20048;-68
2023/05/05 07:29:06;;;;;;;36.30;22.15;;;15.40;99.90;;;;;;5026890;28;20040;-69
2023/05/05 07:31:31;;;;;;;36.90;23.52;;;15.50;99.90;;;;;;5049636;28;20044;-69
2023/05/05 07:33:57;;;;;;;38.63;23.42;;;15.50;99.90;;;;;;5051378;28;20045;-69
2023/05/05 07:36:22;;;;;;;39.80;23.25;;;15.40;99.90;;;;;;5049826;28;20044;-68
2023/05/05 07:38:48;;;;;;;41.38;24.52;;;15.50;99.90;;;;;;5044499;28;20037;-69
2023/05/05 07:41:13;;;;;;;39.13;24.05;;;15.40;99.90;;;;;;5064986;28;20037;-69
2023/05/05 07:43:40;;;;;;;42.03;24.67;;;15.50;99.90;;;;;;5045779;28;20447;-69
2023/05/05 07:46:06;;;;;;;40.63;26.13;;;15.70;99.90;;;;;;5041027;28;20037;-68
2023/05/05 07:48:32;;;;;;;44.45;24.75;;;15.70;99.90;;;;;;5055151;28;20515;-71
2023/05/05 07:50:57;;;;;;;39.40;25.02;;;15.90;99.90;;;;;;5051008;28;20052;-71
2023/05/05 07:53:23;;;;;;;43.10;25.23;;;15.90;99.90;;;;;;5049497;28;20075;-69
2023/05/05 07:55:48;;;;;;;44.75;25.98;;;16.10;99.90;;;;;;5046857;28;20140;-70
2023/05/05 07:58:15;;;;;;;47.15;26.02;;;16.20;99.90;;;;;;5060709;28;20072;-69
2023/05/05 08:00:42;;;;;;;43.70;26.58;;;16.30;99.90;;;;;;5051925;28;20048;-70
2023/05/05 08:03:08;;;;;;;45.72;25.02;;;16.50;99.90;;;;;;5048033;28;20047;-70
2023/05/05 08:05:34;;;;;;;46.03;25.98;;;16.60;99.90;;;;;;5051639;28;20062;-69
2023/05/05 08:07:59;;;;;;;47.95;26.63;;;16.60;99.90;;;;;;5052302;28;20039;-70
2023/05/05 08:10:25;;;;;;;45.33;25.33;;;16.70;99.90;;;;;;5048186;28;20037;-70
2023/05/05 08:12:51;;;;;;;41.40;25.30;;;16.80;99.90;;;;;;5049930;28;20041;-70
2023/05/05 08:15:16;;;;;;;45.70;25.27;;;17.00;99.90;;;;;;5045443;28;20033;-70
2023/05/05 08:17:49;;;;;;;42.38;24.05;;;17.10;99.90;;;;;;5049880;28;20040;-68
2023/05/05 08:20:15;;;;;;;46.83;26.25;;;17.00;99.90;;;;;;5047853;28;20037;-67
2023/05/05 08:22:41;;;;;;;45.88;24.40;;;17.10;99.90;;;;;;5044378;28;20044;-71
2023/05/05 08:25:09;;;;;;;41.03;22.92;;;17.10;99.90;;;;;;5049139;28;20119;-68
2023/05/05 08:27:36;;;;;;;43.05;24.35;;;17.10;99.90;;;;;;5048574;28;20029;-70
2023/05/05 08:30:02;;;;;;;40.33;22.65;;;17.20;99.90;;;;;;5047460;28;20025;-69
2023/05/05 08:32:28;;;;;;;37.03;22.08;;;17.30;99.90;;;;;;5042461;28;20068;-70
2023/05/05 08:34:53;;;;;;;39.95;24.15;;;17.30;99.90;;;;;;5045009;28;20045;-69
2023/05/05 08:37:19;;;;;;;38.05;21.27;;;17.40;99.90;;;;;;5044137;28;20052;-70
2023/05/05 08:39:45;;;;;;;37.90;20.42;;;17.40;99.90;;;;;;5050629;28;20041;-71
2023/05/05 08:42:10;;;;;;;30.65;17.00;;;17.40;99.90;;;;;;5053729;28;20048;-67
2023/05/05 08:44:36;;;;;;;36.70;19.13;;;17.30;99.90;;;;;;5070811;28;20033;-67
2023/05/05 08:47:02;;;;;;;36.83;18.65;;;17.30;99.90;;;;;;5052228;28;20067;-70
2023/05/05 08:49:35;;;;;;;34.30;17.80;;;17.40;99.90;;;;;;5053783;28;20063;-68
2023/05/05 08:52:07;;;;;;;32.80;18.73;;;17.40;99.90;;;;;;5053761;28;20045;-68
2023/05/05 08:54:36;;;;;;;32.95;18.60;;;17.60;99.90;;;;;;5051265;28;20073;-68
2023/05/05 08:57:06;;;;;;;32.75;18.45;;;17.60;99.90;;;;;;5045687;28;20178;-69
2023/05/05 08:59:33;;;;;;;31.60;16.90;;;17.70;99.90;;;;;;5050307;28;20115;-68
2023/05/05 09:02:00;;;;;;;30.17;17.02;;;17.70;99.90;;;;;;5053670;28;20131;-67
2023/05/05 09:04:26;;;;;;;26.15;14.88;;;17.80;99.90;;;;;;5052965;28;20037;-69
2023/05/05 09:06:51;;;;;;;34.42;16.88;;;17.90;99.90;;;;;;5049732;28;20041;-63
2023/05/05 09:09:18;;;;;;;25.38;13.35;;;18.00;99.90;;;;;;5048896;28;20171;-64
2023/05/05 09:11:44;;;;;;;25.25;13.02;;;18.10;99.90;;;;;;5049387;28;20044;-64
2023/05/05 09:14:10;;;;;;;18.30;9.60;;;18.10;99.90;;;;;;5049655;28;20328;-65
2023/05/05 09:16:41;;;;;;;17.50;10.75;;;18.10;99.90;;;;;;5043349;28;20479;-64
2023/05/05 09:19:07;;;;;;;16.80;8.25;;;18.00;99.90;;;;;;5042514;28;20147;-63
2023/05/05 09:21:35;;;;;;;14.35;5.95;;;18.00;99.90;;;;;;5050062;28;20025;-64
2023/05/05 09:24:04;;;;;;;18.10;9.25;;;18.10;99.90;;;;;;5042928;28;20130;-64
2023/05/05 09:26:33;;;;;;;18.90;10.73;;;18.30;99.90;;;;;;5048739;28;20037;-65
2023/05/05 09:29:02;;;;;;;18.92;11.52;;;18.40;99.90;;;;;;5044942;28;20095;-63
2023/05/05 09:31:35;;;;;;;19.77;10.60;;;18.30;99.90;;;;;;5045331;28;20064;-63
2023/05/05 09:34:11;;;;;;;21.25;11.00;;;18.40;99.90;;;;;;5052640;28;20037;-64
2023/05/05 09:36:48;;;;;;;21.77;11.77;;;18.60;99.90;;;;;;5048270;28;20094;-63
2023/05/05 09:39:18;;;;;;;25.05;13.07;;;18.90;99.90;;;;;;5052906;28;20040;-64
2023/05/05 09:41:44;;;;;;;23.20;13.18;;;19.20;99.90;;;;;;5049366;28;20479;-65
2023/05/05 09:44:11;;;;;;;23.08;12.38;;;19.20;99.90;;;;;;5032226;28;20037;-65
2023/05/05 09:46:49;;;;;;;22.92;12.88;;;19.20;99.90;;;;;;5047601;28;20033;-63
2023/05/05 09:49:17;;;;;;;19.08;9.60;;;19.10;99.90;;;;;;5046956;28;20589;-64
2023/05/05 09:51:45;;;;;;;20.48;10.07;;;19.10;99.90;;;;;;5048133;28;20497;-63
2023/05/05 09:54:21;;;;;;;19.45;11.50;;;19.30;99.90;;;;;;5068775;28;20371;-64
2023/05/05 09:56:46;;;;;;;17.80;11.10;;;19.20;99.90;;;;;;5049459;28;20040;-63
2023/05/05 09:59:12;;;;;;;16.10;9.13;;;19.10;99.90;;;;;;5044301;28;20137;-64
2023/05/05 10:01:38;;;;;;;21.25;10.50;;;19.30;99.90;;;;;;5052738;28;20091;-64
2023/05/05 10:04:04;;;;;;;23.27;11.38;;;19.40;99.90;;;;;;5049504;28;20051;-65
2023/05/05 10:06:42;;;;;;;15.00;8.43;;;19.40;99.90;;;;;;5045176;28;20045;-64
2023/05/05 10:09:08;;;;;;;15.55;8.23;;;19.40;99.90;;;;;;5039846;28;20566;-65
2023/05/05 10:11:35;;;;;;;15.00;7.13;;;19.40;99.90;;;;;;5043830;28;20138;-64
2023/05/05 10:14:02;;;;;;;15.93;7.65;;;19.10;99.90;;;;;;5045952;28;20066;-63
2023/05/05 10:16:30;;;;;;;16.13;7.53;;;19.10;99.90;;;;;;5042412;28;20476;-64
2023/05/05 10:18:59;;;;;;;14.00;8.80;;;19.20;99.90;;;;;;5048967;28;20048;-63
2023/05/05 10:21:25;;;;;;;19.02;8.32;;;19.30;99.90;;;;;;5049485;28;20033;-64
2023/05/05 10:23:59;;;;;;;12.07;7.20;;;19.30;99.90;;;;;;5051445;28;20068;-65
2023/05/05 10:26:26;;;;;;;12.27;6.75;;;19.30;99.90;;;;;;5042308;28;20116;-66
2023/05/05 10:29:00;;;;;;;15.43;7.63;;;19.50;99.90;;;;;;5044374;28;20049;-64
2023/05/05 10:31:46;;;;;;;19.92;8.40;;;19.50;99.90;;;;;;5039729;28;20076;-65
2023/05/05 10:34:21;;;;;;;14.60;8.10;;;19.60;99.90;;;;;;5047776;28;20037;-65
2023/05/05 10:36:48;;;;;;;16.27;8.13;;;19.50;99.90;;;;;;5048398;28;20041;-65
2023/05/05 10:39:18;;;;;;;14.52;8.07;;;19.60;99.90;;;;;;5047882;28;20502;-65
2023/05/05 10:41:46;;;;;;;11.20;5.70;;;19.70;99.90;;;;;;5051159;28;20041;-65
2023/05/05 10:44:13;;;;;;;11.73;6.13;;;19.80;99.90;;;;;;5052524;28;20090;-65
2023/05/05 10:46:40;;;;;;;10.70;5.80;;;19.80;99.90;;;;;;5052641;28;20447;-64
2023/05/05 10:49:30;;;;;;;14.10;7.03;;;19.90;99.90;;;;;;5052539;28;20033;-65
2023/05/05 10:52:19;;;;;;;10.52;4.90;;;20.00;99.90;;;;;;5052121;28;20120;-65
2023/05/05 10:54:48;;;;;;;12.90;5.93;;;20.00;99.90;;;;;;5050561;28;20080;-65
2023/05/05 10:57:17;;;;;;;10.20;6.03;;;19.90;99.90;;;;;;5046379;28;20056;-65
2023/05/05 10:59:43;;;;;;;11.23;5.60;;;19.70;99.90;;;;;;5046722;28;20083;-65
2023/05/05 11:02:20;;;;;;;13.95;5.65;;;19.70;99.90;;;;;;5045144;28;20463;-66
2023/05/05 11:05:13;;;;;;;13.55;7.95;;;19.50;99.90;;;;;;5049196;28;20063;-64
2023/05/05 11:07:39;;;;;;;12.45;5.93;;;19.30;99.90;;;;;;5049634;28;20152;-64
2023/05/05 11:10:06;;;;;;;11.55;7.07;;;19.30;99.90;;;;;;5051843;28;20533;-64
2023/05/05 11:12:52;;;;;;;14.60;6.95;;;19.30;99.90;;;;;;5048054;28;20133;-65
2023/05/05 11:15:30;;;;;;;12.45;7.10;;;19.00;99.90;;;;;;5046481;28;20488;-65
2023/05/05 11:17:57;;;;;;;15.18;7.53;;;19.10;99.90;;;;;;5068101;28;20071;-64
2023/05/05 11:20:57;;;;;;;13.85;7.25;;;19.10;99.90;;;;;;5047136;28;20063;-66
2023/05/05 11:23:37;;;;;;;13.38;8.80;;;19.30;99.90;;;;;;5031653;28;20054;-65
2023/05/05 11:26:03;;;;;;;13.48;7.93;;;19.20;99.90;;;;;;5053865;28;20040;-66
2023/05/05 11:28:30;;;;;;;16.42;8.77;;;19.20;99.90;;;;;;5047944;28;20510;-67
2023/05/05 11:30:55;;;;;;;14.88;8.77;;;19.20;99.90;;;;;;5047648;28;20041;-65
2023/05/05 11:34:16;;;;;;;12.07;7.00;;;19.20;99.90;;;;;;5050928;28;20048;-65
2023/05/05 11:36:42;;;;;;;14.32;6.72;;;19.30;99.90;;;;;;5032052;28;20446;-66
2023/05/05 11:39:21;;;;;;;13.27;8.13;;;19.40;99.90;;;;;;5050491;28;20076;-64
2023/05/05 11:42:14;;;;;;;14.43;6.63;;;19.40;99.90;;;;;;5041224;28;20084;-65
2023/05/05 11:44:40;;;;;;;15.75;7.80;;;19.50;99.90;;;;;;5062851;28;20036;-67
2023/05/05 11:50:47;;;;;;;8.40;5.15;;;19.40;99.90;;;;;;5057717;28;20027;-66
2023/05/05 11:53:48;;;;;;;9.68;4.68;;;19.20;99.90;;;;;;5071825;28;20514;-66
2023/05/05 11:57:08;;;;;;;11.07;4.57;;;19.10;99.90;;;;;;5051805;28;20404;-66
2023/05/05 11:59:36;;;;;;;9.20;5.32;;;18.90;99.90;;;;;;4988208;28;20089;-65
2023/05/05 12:02:02;;;;;;;13.07;7.85;;;18.60;99.90;;;;;;5031816;28;20056;-64
2023/05/05 12:04:30;;;;;;;14.35;8.82;;;18.30;99.90;;;;;;5047566;28;20064;-63
2023/05/05 12:06:58;;;;;;;14.25;8.75;;;18.10;99.90;;;;;;5055793;28;20060;-64
2023/05/05 12:09:23;;;;;;;21.73;10.18;;;17.90;99.90;;;;;;5041254;28;20041;-65
2023/05/05 12:11:54;;;;;;;22.40;11.82;;;17.70;99.90;;;;;;5041589;28;20357;-66
2023/05/05 12:14:21;;;;;;;23.05;12.23;;;17.60;99.90;;;;;;5054045;28;20161;-65
2023/05/05 12:17:00;;;;;;;21.00;9.82;;;17.40;99.90;;;;;;5063680;28;20029;-65
2023/05/05 12:19:29;;;;;;;15.50;8.60;;;17.00;99.90;;;;;;5054118;28;20029;-64
2023/05/05 12:21:55;;;;;;;10.65;4.85;;;16.40;99.90;;;;;;5045301;28;20117;-64
2023/05/05 12:24:20;;;;;;;9.48;4.00;;;15.50;99.90;;;;;;5043423;28;20099;-63
2023/05/05 12:26:47;;;;;;;6.32;3.90;;;15.00;99.90;;;;;;5044899;28;20476;-64
2023/05/05 12:29:23;;;;;;;8.80;3.88;;;14.60;99.90;;;;;;5048783;28;20086;-64
2023/05/05 12:31:49;;;;;;;10.77;4.18;;;14.30;99.90;;;;;;5047595;28;20044;-64
2023/05/05 12:34:15;;;;;;;8.85;3.45;;;14.00;99.90;;;;;;5047521;28;20025;-65
2023/05/05 12:36:41;;;;;;;6.70;3.25;;;13.90;99.90;;;;;;5048756;28;20037;-64
2023/05/05 12:39:07;;;;;;;9.57;2.92;;;13.70;99.90;;;;;;5044199;28;20040;-63
2023/05/05 12:41:33;;;;;;;8.70;3.65;;;13.60;99.90;;;;;;5046186;28;20037;-64
2023/05/05 12:44:00;;;;;;;8.63;3.47;;;13.60;99.90;;;;;;5051194;28;20087;-64
2023/05/05 12:46:28;;;;;;;10.35;3.90;;;13.50;99.90;;;;;;5051852;28;20053;-64
2023/05/05 12:49:03;;;;;;;13.02;3.95;;;13.50;99.90;;;;;;5049204;28;20091;-64
2023/05/05 12:51:34;;;;;;;8.27;2.85;;;13.40;99.90;;;;;;5049480;28;20932;-64
2023/05/05 12:58:00;;;;;;;8.38;3.58;;;13.30;99.90;;;;;;5056036;28;20028;-62
2023/05/05 13:01:22;;;;;;;14.25;3.78;;;13.30;99.90;;;;;;5051584;28;20049;-64
2023/05/05 13:04:10;;;;;;;8.05;3.10;;;13.30;99.90;;;;;;5050297;28;20045;-65
2023/05/05 13:06:40;;;;;;;9.93;3.22;;;13.40;99.90;;;;;;5042786;28;20044;-65
2023/05/05 13:09:06;;;;;;;10.43;4.10;;;13.30;99.90;;;;;;5054580;28;20048;-63
2023/05/05 13:11:38;;;;;;;10.52;2.80;;;13.30;99.90;;;;;;5047860;28;20396;-64
2023/05/05 13:14:05;;;;;;;10.88;2.80;;;13.30;99.90;;;;;;5045778;28;20048;-64
2023/05/05 13:16:31;;;;;;;5.22;2.30;;;13.30;99.90;;;;;;5051359;28;20048;-64
2023/05/05 13:18:59;;;;;;;8.10;2.55;;;13.20;99.90;;;;;;5054357;28;20041;-64
2023/05/05 13:21:24;;;;;;;6.72;2.63;;;13.20;99.90;;;;;;5054708;28;20041;-64
2023/05/05 13:23:54;;;;;;;8.15;2.60;;;13.20;99.90;;;;;;5054070;28;20098;-64
2023/05/05 13:26:20;;;;;;;7.35;2.85;;;13.20;99.90;;;;;;5052877;28;20087;-65
2023/05/05 13:28:58;;;;;;;8.95;3.30;;;13.10;99.90;;;;;;5052429;28;20484;-64
2023/05/05 13:31:24;;;;;;;9.32;3.75;;;13.10;99.90;;;;;;5055597;28;20025;-64
2023/05/05 13:37:55;;;;;;;12.48;4.60;;;13.30;99.90;;;;;;5055490;28;20400;-63
2023/05/05 13:40:21;;;;;;;12.10;5.03;;;13.20;99.90;;;;;;5053796;28;20048;-63